• Join FlightAware (Why Join?)
  • Login
  • US Flag 
06:03PM EST


 

Airport Tracker/Info


-or-


 

Live Flight TrackerFlight Track Log ✈ KAL1931 ✈ 22-Sep-2013 ✈ RKJY / RSU - RKPC / CJU

Flight Track Log - Related Links

Times and Time Zones

All times are in EDT time to prevent confusion due to time zone crossing. See the KAL1931 flight status page for this flight to view local times or setup timezone preferences in your user account.

Time Position Orientation Groundspeed Altitude Reporting Facility
EDT Latitude Longitude Course Direction KTS MPH feet Rate Location/Type
11:49PM 34.6097 127.4178 215° Southwest  Level Estimated
11:50PM 34.5522 127.3686 215° Southwest  Level Estimated
11:51PM 34.4946 127.3194 215° Southwest  Level Estimated
11:52PM 34.4370 127.2703 215° Southwest  Level Estimated
11:53PM 34.3793 127.2213 215° Southwest  Level Estimated
11:54PM 34.3217 127.1724 215° Southwest  Level Estimated
11:55PM 34.2775 127.1349 215° Southwest  Level Estimated
11:56PM 34.2332 127.0974 215° Southwest  Level Estimated
11:57PM 34.1890 127.0600 215° Southwest  Level Estimated
11:58PM 34.1448 127.0227 215° Southwest  Level Estimated
11:59PM 34.1005 126.9854 215° Southwest  Level Estimated
12:00AM 34.0562 126.9481 215° Southwest  Level Estimated
12:01AM 34.0120 126.9108 215° Southwest  Level Estimated
12:02AM 33.9677 126.8736 215° Southwest  Level Estimated
12:03AM 33.9234 126.8364 215° Southwest  Level Estimated
12:04AM 33.8791 126.7993 215° Southwest  Level Estimated
12:05AM 33.8347 126.7622 215° Southwest  Level Estimated
12:06AM 33.7904 126.7252 215° Southwest  Level Estimated
12:07AM 33.7460 126.6882 215° Southwest  Level Estimated
12:08AM 33.7017 126.6512 215° Southwest  Level Estimated
12:09AM 33.6573 126.6143 215° Southwest  Level Estimated
12:10AM 33.6129 126.5773 215° Southwest  Level Estimated
12:11AM 33.5685 126.5405 215° Southwest  Level Estimated
12:12AM 33.5241 126.5037 215° Southwest  Level Estimated
12:13AM 33.5113 126.4930 215° Southwest  Level Estimated
12:14AM 33.5113 126.4930 203° Southwest  Level Estimated
12:15AM 33.5113 126.4930 203° Southwest  Level Estimated
12:16AM 33.5113 126.4930 203° Southwest  Level Estimated
12:17AM 33.5113 126.4930 203° Southwest  Level Estimated
12:18AM 33.5113 126.4930 203° Southwest  Level Estimated
12:19AM 33.5113 126.4930 203° Southwest  Level Estimated
12:20AM 33.5113 126.4930 203° Southwest  Level Estimated
12:21AM 33.5113 126.4930 203° Southwest  Level Estimated
12:22AM 33.5113 126.4930 203° Southwest  Level Estimated